createdAt,value
2018-10-01T00:00:11.246Z,101176.53
2018-10-01T00:02:39.676Z,101153.94
2018-10-01T00:05:08.538Z,101156.08
2018-10-01T00:07:37.386Z,101150.02
2018-10-01T00:10:06.298Z,101135.19
2018-10-01T00:12:35.106Z,101147.03
2018-10-01T00:15:04.066Z,101137.33
2018-10-01T00:17:32.883Z,101156.70
2018-10-01T00:20:06.843Z,101155.95
2018-10-01T00:22:40.753Z,101118.92
2018-10-01T00:25:09.614Z,101136.52
2018-10-01T00:27:38.438Z,101138.87
2018-10-01T00:30:07.258Z,101124.73
2018-10-01T00:32:36.250Z,101124.14
2018-10-01T00:35:05.151Z,101128.66
2018-10-01T00:37:34.009Z,101107.86
2018-10-01T00:40:03.129Z,101117.61
2018-10-01T00:42:31.942Z,101097.51
2018-10-01T00:45:00.748Z,101105.84
2018-10-01T00:47:29.601Z,101118.63
2018-10-01T00:49:58.390Z,101103.42
2018-10-01T00:52:27.217Z,101118.84
2018-10-01T00:54:56.069Z,101110.55
2018-10-01T00:57:24.926Z,101109.11
2018-10-01T00:59:53.806Z,101097.20
2018-10-01T01:02:22.597Z,101098.52
2018-10-01T01:04:51.404Z,101074.08
2018-10-01T01:07:20.257Z,101083.22
2018-10-01T01:09:49.106Z,101078.22
2018-10-01T01:12:17.926Z,101080.52
2018-10-01T01:14:46.742Z,101067.70
2018-10-01T01:17:15.558Z,101072.50
2018-10-01T01:19:44.677Z,101068.92
2018-10-01T01:22:13.473Z,101072.98
2018-10-01T01:24:42.315Z,101071.53
2018-10-01T01:27:11.188Z,101073.34
2018-10-01T01:29:40.019Z,101068.88
2018-10-01T01:32:08.814Z,101082.35
2018-10-01T01:34:37.659Z,101067.66
2018-10-01T01:37:06.487Z,101070.23
2018-10-01T01:39:36.634Z,101058.62
2018-10-01T01:42:05.435Z,101056.14
2018-10-01T01:44:34.342Z,101052.09
2018-10-01T01:47:03.208Z,101049.01
2018-10-01T01:49:32.030Z,101055.21
2018-10-01T01:52:00.945Z,101039.63
2018-10-01T01:54:29.766Z,101046.39
2018-10-01T01:56:58.586Z,101033.47
2018-10-01T01:59:27.418Z,101029.32
2018-10-01T02:01:56.221Z,101034.55
2018-10-01T02:04:25.074Z,101023.63
2018-10-01T02:06:54.061Z,101028.11
2018-10-01T02:09:22.862Z,101025.77
2018-10-01T02:11:51.802Z,101024.80
2018-10-01T02:14:20.803Z,101021.25
2018-10-01T02:16:49.599Z,101021.99
2018-10-01T02:19:18.518Z,101012.15
2018-10-01T02:21:47.328Z,101014.99
2018-10-01T02:24:16.134Z,101023.30
2018-10-01T02:26:45.002Z,101008.84
2018-10-01T02:29:13.811Z,101012.05
2018-10-01T02:31:42.610Z,101013.40
2018-10-01T02:34:11.470Z,101010.15
2018-10-01T02:36:40.252Z,101013.60
2018-10-01T02:39:11.631Z,101001.98
2018-10-01T02:41:40.675Z,100998.66
2018-10-01T02:44:09.497Z,101011.25
2018-10-01T02:46:38.533Z,101002.72
2018-10-01T02:49:07.559Z,100988.45
2018-10-01T02:51:41.591Z,100986.06
2018-10-01T02:54:15.450Z,100997.95
2018-10-01T02:56:44.262Z,100997.62
2018-10-01T02:59:13.103Z,100973.30
2018-10-01T03:01:41.919Z,100976.25
2018-10-01T03:04:10.790Z,100972.22
2018-10-01T03:06:39.734Z,100985.06
2018-10-01T03:09:11.948Z,100988.24
2018-10-01T03:11:40.915Z,100980.64
2018-10-01T03:14:10.430Z,100977.45
2018-10-01T03:16:39.527Z,100979.33
2018-10-01T03:19:08.914Z,100979.70
2018-10-01T03:21:38.801Z,100978.63
2018-10-01T03:24:07.784Z,100973.87
2018-10-01T03:26:36.623Z,100967.83
2018-10-01T03:29:05.479Z,100971.99
2018-10-01T03:31:34.505Z,100973.16
2018-10-01T03:34:04.554Z,100964.39
2018-10-01T03:36:33.375Z,100952.49
2018-10-01T03:39:02.162Z,100951.78
2018-10-01T03:41:32.254Z,100948.80
2018-10-01T03:44:01.054Z,100956.55
2018-10-01T03:46:29.841Z,100952.14
2018-10-01T03:49:00.166Z,100942.64
2018-10-01T03:51:28.973Z,100945.38
2018-10-01T03:53:57.761Z,100934.36
2018-10-01T03:56:26.563Z,100941.22
2018-10-01T03:58:55.446Z,100926.98
2018-10-01T04:01:24.252Z,100921.98
2018-10-01T04:03:53.043Z,100931.50
2018-10-01T04:06:23.143Z,100922.82
2018-10-01T04:08:52.022Z,100908.94
2018-10-01T04:11:20.839Z,100932.80
2018-10-01T04:13:49.660Z,100923.08
2018-10-01T04:16:19.926Z,100898.95
2018-10-01T04:18:48.729Z,100908.59
2018-10-01T04:21:18.754Z,100906.78
2018-10-01T04:23:47.549Z,100899.55
2018-10-01T04:26:17.710Z,100890.74
2018-10-01T04:28:46.616Z,100900.26
2018-10-01T04:31:15.410Z,100895.97
2018-10-01T04:33:44.618Z,100885.88
2018-10-01T04:36:13.777Z,100902.51
2018-10-01T04:38:42.554Z,100891.34
2018-10-01T04:41:11.362Z,100866.14
2018-10-01T04:43:41.653Z,100875.91
2018-10-01T04:46:10.435Z,100868.75
2018-10-01T04:48:39.250Z,100872.67
2018-10-01T04:51:08.187Z,100862.11
2018-10-01T04:53:36.979Z,100866.63
2018-10-01T04:56:05.813Z,100871.50
2018-10-01T04:58:34.865Z,100859.98
2018-10-01T05:01:03.593Z,100855.13
2018-10-01T05:03:32.414Z,100849.04
2018-10-01T05:06:01.244Z,100867.59
2018-10-01T05:08:30.101Z,100858.45
2018-10-01T05:10:59.378Z,100853.55
2018-10-01T05:13:28.170Z,100855.11
2018-10-01T05:15:57.010Z,100862.34
2018-10-01T05:18:25.805Z,100842.88
2018-10-01T05:20:54.654Z,100851.82
2018-10-01T05:23:24.850Z,100843.61
2018-10-01T05:25:53.661Z,100847.29
2018-10-01T05:28:22.710Z,100852.27
2018-10-01T05:30:51.650Z,100852.38
2018-10-01T05:33:20.434Z,100832.08
2018-10-01T05:35:49.230Z,100846.56
2018-10-01T05:38:18.254Z,100844.78
2018-10-01T05:40:47.094Z,100841.23
2018-10-01T05:43:15.906Z,100856.78
2018-10-01T05:45:44.685Z,100847.29
2018-10-01T05:48:13.589Z,100845.37
2018-10-01T05:50:42.458Z,100841.69
2018-10-01T05:53:11.266Z,100839.66
2018-10-01T05:55:40.196Z,100830.29
2018-10-01T05:58:09.068Z,100833.27
2018-10-01T06:00:37.865Z,100837.30
2018-10-01T06:03:06.801Z,100833.23
2018-10-01T06:05:35.597Z,100838.59
2018-10-01T06:08:05.770Z,100832.52
2018-10-01T06:10:34.558Z,100839.78
2018-10-01T06:13:03.342Z,100839.89
2018-10-01T06:15:32.166Z,100851.17
2018-10-01T06:18:01.246Z,100839.67
2018-10-01T06:20:31.458Z,100834.05
2018-10-01T06:23:00.357Z,100833.83
2018-10-01T06:25:29.151Z,100827.17
2018-10-01T06:27:59.274Z,100809.70
2018-10-01T06:30:28.078Z,100830.73
2018-10-01T06:32:56.909Z,100810.28
2018-10-01T06:35:27.043Z,100832.88
2018-10-01T06:37:55.884Z,100834.08
2018-10-01T06:40:24.706Z,100828.70
2018-10-01T06:42:53.555Z,100826.34
2018-10-01T06:45:22.449Z,100820.27
2018-10-01T06:47:51.278Z,100822.20
2018-10-01T06:50:20.143Z,100822.05
2018-10-01T06:52:48.990Z,100815.16
2018-10-01T06:55:17.820Z,100802.94
2018-10-01T06:57:46.746Z,100808.98
2018-10-01T07:00:15.546Z,100813.84
2018-10-01T07:02:44.336Z,100810.28
2018-10-01T07:05:13.205Z,100813.05
2018-10-01T07:07:42.032Z,100783.44
2018-10-01T07:10:12.214Z,100813.52
2018-10-01T07:12:41.005Z,100805.41
2018-10-01T07:15:09.839Z,100808.39
2018-10-01T07:17:39.871Z,100800.91
2018-10-01T07:20:08.866Z,100811.48
2018-10-01T07:22:37.730Z,100809.09
2018-10-01T07:25:06.671Z,100810.91
2018-10-01T07:27:35.715Z,100804.36
2018-10-01T07:30:04.588Z,100798.98
2018-10-01T07:32:33.465Z,100800.41
2018-10-01T07:35:02.418Z,100814.58
2018-10-01T07:37:31.424Z,100760.00
2018-10-01T07:40:00.446Z,100801.02
2018-10-01T07:42:29.226Z,100799.57
2018-10-01T07:44:58.080Z,100789.69
2018-10-01T07:47:27.043Z,100781.51
2018-10-01T07:49:55.915Z,100789.69
2018-10-01T07:52:24.750Z,100779.00
2018-10-01T07:54:53.575Z,100779.22
2018-10-01T07:57:22.708Z,100773.05
2018-10-01T07:59:51.547Z,100777.44
2018-10-01T08:02:21.842Z,100784.81
2018-10-01T08:04:50.614Z,100765.88
2018-10-01T08:07:19.464Z,100756.87
2018-10-01T08:09:49.694Z,100760.22
2018-10-01T08:12:19.940Z,100773.41
2018-10-01T08:14:48.893Z,100765.92
2018-10-01T08:17:17.825Z,100762.11
2018-10-01T08:19:46.840Z,100758.66
2018-10-01T08:22:15.686Z,100759.34
2018-10-01T08:24:44.848Z,100741.50
2018-10-01T08:27:13.958Z,100739.24
2018-10-01T08:29:42.885Z,100736.62
2018-10-01T08:32:11.679Z,100727.83
2018-10-01T08:34:40.598Z,100739.97
2018-10-01T08:37:09.451Z,100732.59
2018-10-01T08:39:38.250Z,100739.61
2018-10-01T08:42:07.191Z,100736.25
2018-10-01T08:44:37.365Z,100718.41
2018-10-01T08:47:06.244Z,100715.31
2018-10-01T08:51:41.936Z,100715.63
2018-10-01T08:54:15.227Z,100710.70
2018-10-01T08:56:44.133Z,100721.52
2018-10-01T08:59:14.287Z,100721.37
2018-10-01T09:01:43.104Z,100715.39
2018-10-01T09:04:12.107Z,100722.87
2018-10-01T09:06:40.994Z,100703.33
2018-10-01T09:09:10.914Z,100710.53
2018-10-01T09:11:39.811Z,100705.84
2018-10-01T09:14:08.804Z,100699.74
2018-10-01T09:16:37.706Z,100712.36
2018-10-01T09:19:06.681Z,100693.84
2018-10-01T09:21:35.669Z,100717.91
2018-10-01T09:24:04.574Z,100715.94
2018-10-01T09:26:33.599Z,100684.77
2018-10-01T09:29:02.505Z,100682.38
2018-10-01T09:31:31.498Z,100698.83
2018-10-01T09:34:00.656Z,100696.59
2018-10-01T09:36:29.614Z,100675.17
2018-10-01T09:38:58.459Z,100689.48
2018-10-01T09:41:27.485Z,100678.53
2018-10-01T09:43:56.438Z,100676.27
2018-10-01T09:46:25.348Z,100641.84
2018-10-01T09:48:54.335Z,100668.61
2018-10-01T09:51:23.293Z,100657.78
2018-10-01T09:53:52.380Z,100673.47
2018-10-01T09:56:21.224Z,100642.17
2018-10-01T09:58:50.046Z,100654.31
2018-10-01T10:01:18.855Z,100655.41
2018-10-01T10:03:49.092Z,100653.92
2018-10-01T10:06:18.118Z,100651.99
2018-10-01T10:08:46.984Z,100657.05
2018-10-01T10:11:22.663Z,100656.83
2018-10-01T10:14:01.689Z,100652.92
2018-10-01T10:16:39.064Z,100655.55
2018-10-01T10:19:19.143Z,100630.45
2018-10-01T10:22:05.155Z,100624.86
2018-10-01T10:24:38.283Z,100598.69
2018-10-01T10:27:18.096Z,100623.55
2018-10-01T10:29:57.872Z,100624.59
2018-10-01T10:32:26.845Z,100628.97
2018-10-01T10:34:55.823Z,100634.77
2018-10-01T10:37:24.745Z,100627.93
2018-10-01T10:39:53.632Z,100613.89
2018-10-01T10:42:22.460Z,100629.36
2018-10-01T10:44:52.656Z,100627.13
2018-10-01T10:47:21.487Z,100617.73
2018-10-01T10:49:50.404Z,100611.19
2018-10-01T10:52:20.966Z,100625.49
2018-10-01T10:54:49.955Z,100625.30
2018-10-01T10:57:18.841Z,100615.79
2018-10-01T10:59:47.743Z,100615.07
2018-10-01T11:02:16.812Z,100630.55
2018-10-01T11:04:46.036Z,100627.45
2018-10-01T11:07:15.083Z,100631.70
2018-10-01T11:09:43.917Z,100622.92
2018-10-01T11:12:12.793Z,100625.42
2018-10-01T11:14:41.855Z,100618.77
2018-10-01T11:17:10.735Z,100627.92
2018-10-01T11:19:39.703Z,100627.27
2018-10-01T11:22:08.606Z,100636.20
2018-10-01T11:24:37.427Z,100625.54
2018-10-01T11:27:06.321Z,100621.38
2018-10-01T11:29:37.652Z,100613.09
2018-10-01T11:32:07.040Z,100603.27
2018-10-01T11:34:35.996Z,100592.44
2018-10-01T11:37:04.933Z,100603.92
2018-10-01T11:39:33.875Z,100604.64
2018-10-01T11:42:02.793Z,100606.63
2018-10-01T11:44:31.742Z,100598.48
2018-10-01T11:47:00.639Z,100599.78
2018-10-01T11:49:29.570Z,100601.45
2018-10-01T11:51:59.755Z,100584.47
2018-10-01T11:54:28.798Z,100604.22
2018-10-01T11:56:57.662Z,100605.11
2018-10-01T11:59:26.674Z,100600.00
2018-10-01T12:01:55.566Z,100611.66
2018-10-01T12:04:24.479Z,100611.84
2018-10-01T12:06:53.458Z,100605.50
2018-10-01T12:09:22.389Z,100607.94
2018-10-01T12:11:51.254Z,100604.94
2018-10-01T12:14:21.396Z,100591.58
2018-10-01T12:16:50.347Z,100595.03
2018-10-01T12:19:19.259Z,100552.52
2018-10-01T12:21:48.338Z,100529.31
2018-10-01T12:24:17.136Z,100600.70
2018-10-01T12:26:46.062Z,100589.56
2018-10-01T12:29:14.959Z,100588.77
2018-10-01T12:31:45.422Z,100589.52
2018-10-01T12:34:14.503Z,100584.94
2018-10-01T12:36:43.448Z,100583.46
2018-10-01T12:39:13.661Z,100567.00
2018-10-01T12:41:42.505Z,100567.19
2018-10-01T12:44:11.452Z,100548.77
2018-10-01T12:46:41.722Z,100561.95
2018-10-01T12:49:10.710Z,100554.78
2018-10-01T12:51:39.650Z,100530.50
2018-10-01T12:54:10.069Z,100553.11
2018-10-01T12:56:38.902Z,100551.27
2018-10-01T12:59:07.857Z,100538.63
2018-10-01T13:01:36.768Z,100563.76
2018-10-01T13:04:05.688Z,100550.91
2018-10-01T13:06:34.575Z,100542.34
2018-10-01T13:09:03.742Z,100529.45
2018-10-01T13:11:32.671Z,100538.64
2018-10-01T13:14:01.512Z,100523.88
2018-10-01T13:16:30.407Z,100523.00
2018-10-01T13:18:59.267Z,100522.39
2018-10-01T13:21:29.463Z,100532.42
2018-10-01T13:23:58.421Z,100533.08
2018-10-01T13:26:27.348Z,100540.92
2018-10-01T13:28:56.744Z,100529.48
2018-10-01T13:31:25.786Z,100525.09
2018-10-01T13:33:54.767Z,100518.91
2018-10-01T13:36:24.111Z,100483.03
2018-10-01T13:38:53.097Z,100511.03
2018-10-01T13:41:23.331Z,100525.83
2018-10-01T13:43:52.227Z,100567.61
2018-10-01T13:46:21.163Z,100541.66
2018-10-01T13:48:50.107Z,100564.93
2018-10-01T13:51:18.953Z,100527.45
2018-10-01T13:53:47.802Z,100565.28
2018-10-01T13:56:16.778Z,100550.75
2018-10-01T13:58:45.747Z,100553.59
2018-10-01T14:01:14.705Z,100533.17
2018-10-01T14:03:43.673Z,100522.02
2018-10-01T14:06:13.913Z,100532.34
2018-10-01T14:08:42.888Z,100499.80
2018-10-01T14:11:13.128Z,100539.33
2018-10-01T14:13:42.125Z,100529.67
2018-10-01T14:16:11.075Z,100538.82
2018-10-01T14:18:39.950Z,100550.17
2018-10-01T14:21:08.900Z,100525.99
2018-10-01T14:23:37.818Z,100541.75
2018-10-01T14:26:06.686Z,100509.80
2018-10-01T14:28:37.229Z,100548.77
2018-10-01T14:31:06.209Z,100556.31
2018-10-01T14:33:35.088Z,100544.22
2018-10-01T14:36:04.089Z,100540.70
2018-10-01T14:38:32.987Z,100536.97
2018-10-01T14:41:01.919Z,100532.83
2018-10-01T14:43:30.901Z,100538.23
2018-10-01T14:46:01.106Z,100516.20
2018-10-01T14:48:30.090Z,100531.26
2018-10-01T14:51:00.395Z,100539.41
2018-10-01T14:53:30.860Z,100542.09
2018-10-01T14:55:59.766Z,100534.23
2018-10-01T14:58:28.694Z,100529.88
2018-10-01T15:00:59.029Z,100534.86
2018-10-01T15:03:27.908Z,100510.75
2018-10-01T15:05:56.873Z,100528.30
2018-10-01T15:08:28.492Z,100512.62
2018-10-01T15:10:57.515Z,100521.23
2018-10-01T15:13:26.335Z,100542.35
2018-10-01T15:15:55.224Z,100542.28
2018-10-01T15:18:24.162Z,100541.20
2018-10-01T15:20:54.624Z,100539.88
2018-10-01T15:23:23.602Z,100534.29
2018-10-01T15:25:52.531Z,100537.31
2018-10-01T15:28:21.402Z,100548.68
2018-10-01T15:30:50.385Z,100541.91
2018-10-01T15:33:19.346Z,100525.18
2018-10-01T15:35:49.589Z,100526.61
2018-10-01T15:38:18.550Z,100532.33
2018-10-01T15:40:47.483Z,100527.80
2018-10-01T15:43:16.435Z,100528.48
2018-10-01T15:45:45.370Z,100546.11
2018-10-01T15:48:14.300Z,100547.70
2018-10-01T15:50:43.231Z,100560.45
2018-10-01T15:53:13.561Z,100549.33
2018-10-01T15:55:42.561Z,100560.48
2018-10-01T15:58:11.532Z,100549.33
2018-10-01T16:00:40.503Z,100550.52
2018-10-01T16:03:10.794Z,100553.50
2018-10-01T16:05:39.712Z,100538.11
2018-10-01T16:08:08.659Z,100545.61
2018-10-01T16:10:38.918Z,100543.73
2018-10-01T16:13:07.812Z,100558.83
2018-10-01T16:15:36.737Z,100556.20
2018-10-01T16:18:07.089Z,100557.52
2018-10-01T16:20:36.083Z,100563.59
2018-10-01T16:23:05.015Z,100543.27
2018-10-01T16:25:35.365Z,100557.67
2018-10-01T16:28:04.343Z,100564.66
2018-10-01T16:30:33.232Z,100559.66
2018-10-01T16:33:02.169Z,100562.27
2018-10-01T16:35:30.999Z,100569.73
2018-10-01T16:37:59.915Z,100561.95
2018-10-01T16:40:28.911Z,100565.87
2018-10-01T16:42:58.739Z,100585.67
2018-10-01T16:45:30.669Z,100577.58
2018-10-01T16:47:59.742Z,100579.57
2018-10-01T16:50:28.696Z,100585.16
2018-10-01T16:52:57.708Z,100592.87
2018-10-01T16:55:26.723Z,100602.87
2018-10-01T16:57:55.741Z,100596.56
2018-10-01T17:00:24.659Z,100574.81
2018-10-01T17:02:53.621Z,100574.52
2018-10-01T17:05:22.660Z,100568.92
2018-10-01T17:07:51.580Z,100569.80
2018-10-01T17:10:20.500Z,100574.08
2018-10-01T17:12:49.456Z,100577.09
2018-10-01T17:15:18.456Z,100585.66
2018-10-01T17:17:47.396Z,100560.73
2018-10-01T17:20:16.407Z,100573.14
2018-10-01T17:22:45.387Z,100589.53
2018-10-01T17:25:14.269Z,100575.04
2018-10-01T17:27:43.257Z,100576.80
2018-10-01T17:30:12.152Z,100585.16
2018-10-01T17:32:41.047Z,100588.42
2018-10-01T17:35:10.087Z,100592.63
2018-10-01T17:37:39.023Z,100598.23
2018-10-01T17:40:07.951Z,100605.86
2018-10-01T17:42:36.960Z,100608.20
2018-10-01T17:45:06.188Z,100612.97
2018-10-01T17:47:35.125Z,100615.67
2018-10-01T17:50:05.342Z,100617.10
2018-10-01T17:52:34.288Z,100615.29
2018-10-01T17:55:03.252Z,100597.83
2018-10-01T17:57:32.210Z,100599.81
2018-10-01T18:00:01.516Z,100600.56
2018-10-01T18:02:30.418Z,100600.09
2018-10-01T18:04:59.391Z,100610.91
2018-10-01T18:07:28.400Z,100606.84
2018-10-01T18:09:57.370Z,100618.14
2018-10-01T18:12:26.333Z,100614.36
2018-10-01T18:14:55.355Z,100613.73
2018-10-01T18:17:24.248Z,100611.03
2018-10-01T18:19:53.189Z,100619.59
2018-10-01T18:22:22.132Z,100603.80
2018-10-01T18:24:51.118Z,100607.64
2018-10-01T18:27:20.094Z,100601.89
2018-10-01T18:29:48.984Z,100614.41
2018-10-01T18:32:19.211Z,100617.86
2018-10-01T18:34:48.142Z,100627.88
2018-10-01T18:37:17.081Z,100610.28
2018-10-01T18:39:47.446Z,100616.09
2018-10-01T18:42:17.695Z,100628.86
2018-10-01T18:44:46.716Z,100640.63
2018-10-01T18:47:15.700Z,100621.70
2018-10-01T18:49:44.904Z,100628.38
2018-10-01T18:52:15.221Z,100624.09
2018-10-01T18:54:44.120Z,100626.19
2018-10-01T18:57:14.252Z,100609.92
2018-10-01T18:59:44.553Z,100617.30
2018-10-01T19:02:13.440Z,100608.31
2018-10-01T19:04:42.426Z,100612.91
2018-10-01T19:07:12.667Z,100606.60
2018-10-01T19:09:41.673Z,100604.19
2018-10-01T19:12:10.710Z,100597.73
2018-10-01T19:14:39.642Z,100594.64
2018-10-01T19:17:08.553Z,100600.36
2018-10-01T19:19:37.567Z,100600.92
2018-10-01T19:22:07.876Z,100610.77
2018-10-01T19:24:36.854Z,100609.25
2018-10-01T19:27:05.789Z,100607.94
2018-10-01T19:29:34.827Z,100613.91
2018-10-01T19:32:03.758Z,100620.95
2018-10-01T19:34:32.688Z,100621.41
2018-10-01T19:37:01.666Z,100629.64
2018-10-01T19:39:30.591Z,100635.13
2018-10-01T19:41:59.435Z,100623.86
2018-10-01T19:44:29.650Z,100625.16
2018-10-01T19:46:58.569Z,100626.69
2018-10-01T19:49:29.680Z,100627.91
2018-10-01T19:51:59.915Z,100606.77
2018-10-01T19:54:28.878Z,100615.42
2018-10-01T19:56:58.089Z,100612.38
2018-10-01T19:59:28.648Z,100615.42
2018-10-01T20:01:58.829Z,100613.80
2018-10-01T20:04:27.765Z,100620.50
2018-10-01T20:06:56.764Z,100616.68
2018-10-01T20:09:25.683Z,100615.27
2018-10-01T20:11:55.948Z,100629.05
2018-10-01T20:14:24.807Z,100629.05
2018-10-01T20:16:53.720Z,100598.88
2018-10-01T20:19:22.711Z,100593.16
2018-10-01T20:21:51.751Z,100600.87
2018-10-01T20:24:21.097Z,100608.23
2018-10-01T20:26:50.165Z,100626.79
2018-10-01T20:29:19.195Z,100625.97
2018-10-01T20:31:47.819Z,100632.50
2018-10-01T20:34:16.849Z,100617.28
2018-10-01T20:36:45.782Z,100624.88
2018-10-01T20:39:14.707Z,100621.94
2018-10-01T20:41:44.871Z,100626.54
2018-10-01T20:44:13.899Z,100626.87
2018-10-01T20:46:44.135Z,100628.27
2018-10-01T20:49:12.979Z,100624.25
2018-10-01T20:51:41.851Z,100624.15
2018-10-01T20:54:10.840Z,100632.37
2018-10-01T20:56:39.719Z,100629.81
2018-10-01T20:59:15.551Z,100637.86
2018-10-01T21:01:44.432Z,100632.98
2018-10-01T21:04:13.404Z,100643.80
2018-10-01T21:06:42.394Z,100646.53
2018-10-01T21:09:12.647Z,100652.02
2018-10-01T21:11:41.981Z,100649.83
2018-10-01T21:14:11.178Z,100643.92
2018-10-01T21:16:40.107Z,100639.05
2018-10-01T21:19:09.063Z,100639.77
2018-10-01T21:21:38.057Z,100638.15
2018-10-01T21:24:07.002Z,100632.78
2018-10-01T21:26:36.004Z,100639.17
2018-10-01T21:29:05.050Z,100639.23
2018-10-01T21:31:34.040Z,100642.62
2018-10-01T21:34:03.092Z,100643.82
2018-10-01T21:36:32.084Z,100649.45
2018-10-01T21:39:01.113Z,100648.81
2018-10-01T21:41:30.310Z,100652.11
2018-10-01T21:43:59.281Z,100657.98
2018-10-01T21:46:28.309Z,100661.91
2018-10-01T21:48:57.272Z,100665.75
2018-10-01T21:51:26.262Z,100669.77
2018-10-01T21:53:55.278Z,100670.34
2018-10-01T21:56:24.262Z,100665.62
2018-10-01T21:58:53.244Z,100670.33
2018-10-01T22:01:27.547Z,100666.52
2018-10-01T22:03:56.677Z,100666.83
2018-10-01T22:06:25.634Z,100669.13
2018-10-01T22:08:54.582Z,100669.50
2018-10-01T22:11:23.580Z,100672.64
2018-10-01T22:13:52.529Z,100682.91
2018-10-01T22:16:22.788Z,100677.98
2018-10-01T22:18:51.749Z,100676.95
2018-10-01T22:21:20.815Z,100684.54
2018-10-01T22:23:49.809Z,100680.86
2018-10-01T22:26:18.748Z,100686.56
2018-10-01T22:28:47.851Z,100683.74
2018-10-01T22:31:16.828Z,100687.30
2018-10-01T22:33:45.842Z,100688.24
2018-10-01T22:36:14.883Z,100693.36
2018-10-01T22:38:43.836Z,100693.69
2018-10-01T22:41:12.818Z,100694.30
2018-10-01T22:43:43.067Z,100693.09
2018-10-01T22:46:12.069Z,100697.27
2018-10-01T22:48:41.080Z,100692.77
2018-10-01T22:51:11.564Z,100692.84
2018-10-01T22:53:40.491Z,100695.56
2018-10-01T22:56:09.427Z,100698.42
2018-10-01T22:58:38.307Z,100698.64
2018-10-01T23:01:07.299Z,100699.85
2018-10-01T23:03:36.287Z,100699.62
2018-10-01T23:06:05.170Z,100694.87
2018-10-01T23:08:34.211Z,100698.79
2018-10-01T23:11:03.181Z,100702.46
2018-10-01T23:13:32.027Z,100706.86
2018-10-01T23:16:00.955Z,100699.73
2018-10-01T23:18:29.968Z,100703.51
2018-10-01T23:20:58.851Z,100709.58
2018-10-01T23:23:27.831Z,100713.28
2018-10-01T23:25:56.784Z,100714.59
2018-10-01T23:28:25.707Z,100713.75
2018-10-01T23:30:54.651Z,100715.54
2018-10-01T23:33:23.594Z,100705.33
2018-10-01T23:35:52.507Z,100705.34
2018-10-01T23:38:21.434Z,100703.09
2018-10-01T23:40:50.362Z,100700.95
2018-10-01T23:43:19.297Z,100698.34
2018-10-01T23:45:48.155Z,100706.66
2018-10-01T23:48:17.172Z,100701.16
2018-10-01T23:50:45.985Z,100701.84
2018-10-01T23:53:14.934Z,100706.91
2018-10-01T23:55:43.922Z,100697.81
2018-10-01T23:58:12.850Z,100680.14
